sensor_id;sensor_type;location;lat;lon;timestamp;P1;durP1;ratioP1;P2;durP2;ratioP2
75165;SDS011;63747;48.042;10.088;2023-01-20T00:00:32;11.35;;;7.85;;
75165;SDS011;63747;48.042;10.088;2023-01-20T00:03:33;13.97;;;7.73;;
75165;SDS011;63747;48.042;10.088;2023-01-20T00:06:38;11.85;;;7.35;;
75165;SDS011;63747;48.042;10.088;2023-01-20T00:09:42;10.65;;;8.02;;
75165;SDS011;63747;48.042;10.088;2023-01-20T00:12:47;12.15;;;8.05;;
75165;SDS011;63747;48.042;10.088;2023-01-20T00:15:48;13.07;;;7.70;;
75165;SDS011;63747;48.042;10.088;2023-01-20T00:18:49;10.20;;;7.40;;
75165;SDS011;63747;48.042;10.088;2023-01-20T00:21:50;13.18;;;7.75;;
75165;SDS011;63747;48.042;10.088;2023-01-20T00:24:54;11.63;;;7.78;;
75165;SDS011;63747;48.042;10.088;2023-01-20T00:27:55;10.47;;;7.50;;
75165;SDS011;63747;48.042;10.088;2023-01-20T00:30:56;9.55;;;7.18;;
75165;SDS011;63747;48.042;10.088;2023-01-20T00:37:01;9.52;;;6.68;;
75165;SDS011;63747;48.042;10.088;2023-01-20T00:40:02;9.50;;;7.30;;
75165;SDS011;63747;48.042;10.088;2023-01-20T00:43:06;12.52;;;7.95;;
75165;SDS011;63747;48.042;10.088;2023-01-20T00:46:08;10.18;;;7.65;;
75165;SDS011;63747;48.042;10.088;2023-01-20T00:49:09;11.30;;;7.90;;
75165;SDS011;63747;48.042;10.088;2023-01-20T00:52:11;11.25;;;7.80;;
75165;SDS011;63747;48.042;10.088;2023-01-20T00:55:14;12.88;;;8.68;;
75165;SDS011;63747;48.042;10.088;2023-01-20T00:58:15;13.65;;;8.93;;
75165;SDS011;63747;48.042;10.088;2023-01-20T01:01:16;11.63;;;8.53;;
75165;SDS011;63747;48.042;10.088;2023-01-20T01:04:17;13.83;;;8.50;;
75165;SDS011;63747;48.042;10.088;2023-01-20T01:07:18;13.63;;;8.67;;
75165;SDS011;63747;48.042;10.088;2023-01-20T01:10:20;14.43;;;8.40;;
75165;SDS011;63747;48.042;10.088;2023-01-20T01:13:20;14.75;;;8.70;;
75165;SDS011;63747;48.042;10.088;2023-01-20T01:16:21;15.77;;;8.63;;
75165;SDS011;63747;48.042;10.088;2023-01-20T01:19:22;11.50;;;8.45;;
75165;SDS011;63747;48.042;10.088;2023-01-20T01:22:25;18.70;;;9.90;;
75165;SDS011;63747;48.042;10.088;2023-01-20T01:25:27;12.95;;;8.77;;
75165;SDS011;63747;48.042;10.088;2023-01-20T01:28:48;11.93;;;8.20;;
75165;SDS011;63747;48.042;10.088;2023-01-20T01:31:52;9.90;;;8.20;;
75165;SDS011;63747;48.042;10.088;2023-01-20T01:35:00;13.90;;;8.13;;
75165;SDS011;63747;48.042;10.088;2023-01-20T01:38:00;12.57;;;8.93;;
75165;SDS011;63747;48.042;10.088;2023-01-20T01:41:01;13.93;;;8.80;;
75165;SDS011;63747;48.042;10.088;2023-01-20T01:47:07;12.30;;;8.80;;
75165;SDS011;63747;48.042;10.088;2023-01-20T01:50:08;12.00;;;8.63;;
75165;SDS011;63747;48.042;10.088;2023-01-20T01:53:13;12.52;;;8.52;;
75165;SDS011;63747;48.042;10.088;2023-01-20T01:56:14;12.38;;;8.50;;
75165;SDS011;63747;48.042;10.088;2023-01-20T01:59:16;13.48;;;8.77;;
75165;SDS011;63747;48.042;10.088;2023-01-20T02:02:17;9.80;;;7.85;;
75165;SDS011;63747;48.042;10.088;2023-01-20T02:05:19;12.57;;;8.07;;
75165;SDS011;63747;48.042;10.088;2023-01-20T02:08:21;10.43;;;7.97;;
75165;SDS011;63747;48.042;10.088;2023-01-20T02:11:22;9.90;;;6.90;;
75165;SDS011;63747;48.042;10.088;2023-01-20T02:14:24;13.30;;;8.10;;
75165;SDS011;63747;48.042;10.088;2023-01-20T02:17:33;11.98;;;7.75;;
75165;SDS011;63747;48.042;10.088;2023-01-20T02:21:05;10.88;;;7.50;;
75165;SDS011;63747;48.042;10.088;2023-01-20T02:24:18;10.18;;;7.18;;
75165;SDS011;63747;48.042;10.088;2023-01-20T02:27:51;10.77;;;7.53;;
75165;SDS011;63747;48.042;10.088;2023-01-20T02:34:45;9.18;;;6.93;;
75165;SDS011;63747;48.042;10.088;2023-01-20T02:37:52;11.65;;;7.75;;
75165;SDS011;63747;48.042;10.088;2023-01-20T02:40:55;12.23;;;7.90;;
75165;SDS011;63747;48.042;10.088;2023-01-20T02:44:11;11.90;;;7.72;;
75165;SDS011;63747;48.042;10.088;2023-01-20T02:47:22;12.05;;;7.53;;
75165;SDS011;63747;48.042;10.088;2023-01-20T02:53:51;11.35;;;7.72;;
75165;SDS011;63747;48.042;10.088;2023-01-20T02:56:56;9.93;;;7.60;;
75165;SDS011;63747;48.042;10.088;2023-01-20T03:00:01;11.13;;;7.90;;
75165;SDS011;63747;48.042;10.088;2023-01-20T03:03:11;12.98;;;7.70;;
75165;SDS011;63747;48.042;10.088;2023-01-20T03:06:18;13.95;;;8.20;;
75165;SDS011;63747;48.042;10.088;2023-01-20T03:09:26;13.90;;;7.88;;
75165;SDS011;63747;48.042;10.088;2023-01-20T03:12:39;8.80;;;6.60;;
75165;SDS011;63747;48.042;10.088;2023-01-20T03:15:51;10.48;;;6.50;;
75165;SDS011;63747;48.042;10.088;2023-01-20T03:18:59;10.15;;;6.43;;
75165;SDS011;63747;48.042;10.088;2023-01-20T03:22:00;10.90;;;6.03;;
75165;SDS011;63747;48.042;10.088;2023-01-20T03:25:02;11.60;;;5.73;;
75165;SDS011;63747;48.042;10.088;2023-01-20T03:28:03;8.10;;;5.65;;
75165;SDS011;63747;48.042;10.088;2023-01-20T03:31:07;9.53;;;6.00;;
75165;SDS011;63747;48.042;10.088;2023-01-20T03:34:31;9.65;;;5.50;;
75165;SDS011;63747;48.042;10.088;2023-01-20T03:37:34;9.43;;;5.68;;
75165;SDS011;63747;48.042;10.088;2023-01-20T03:40:37;7.77;;;6.30;;
75165;SDS011;63747;48.042;10.088;2023-01-20T03:43:51;7.90;;;6.00;;
75165;SDS011;63747;48.042;10.088;2023-01-20T03:47:17;10.52;;;6.68;;
75165;SDS011;63747;48.042;10.088;2023-01-20T03:50:34;11.57;;;7.07;;
75165;SDS011;63747;48.042;10.088;2023-01-20T03:53:50;9.77;;;6.72;;
75165;SDS011;63747;48.042;10.088;2023-01-20T03:57:30;8.73;;;6.70;;
75165;SDS011;63747;48.042;10.088;2023-01-20T04:00:25;10.18;;;6.88;;
75165;SDS011;63747;48.042;10.088;2023-01-20T04:03:28;12.15;;;7.20;;
75165;SDS011;63747;48.042;10.088;2023-01-20T04:06:30;8.75;;;5.85;;
75165;SDS011;63747;48.042;10.088;2023-01-20T04:09:35;9.82;;;6.53;;
75165;SDS011;63747;48.042;10.088;2023-01-20T04:12:40;9.00;;;5.55;;
75165;SDS011;63747;48.042;10.088;2023-01-20T04:15:42;7.30;;;5.10;;
75165;SDS011;63747;48.042;10.088;2023-01-20T04:18:46;8.18;;;5.30;;
75165;SDS011;63747;48.042;10.088;2023-01-20T04:21:52;10.90;;;6.40;;
75165;SDS011;63747;48.042;10.088;2023-01-20T04:25:00;7.25;;;5.25;;
75165;SDS011;63747;48.042;10.088;2023-01-20T04:28:10;9.88;;;5.72;;
75165;SDS011;63747;48.042;10.088;2023-01-20T04:31:11;9.20;;;5.80;;
75165;SDS011;63747;48.042;10.088;2023-01-20T04:34:14;7.15;;;5.20;;
75165;SDS011;63747;48.042;10.088;2023-01-20T04:37:15;7.10;;;5.13;;
75165;SDS011;63747;48.042;10.088;2023-01-20T04:40:16;9.37;;;6.20;;
75165;SDS011;63747;48.042;10.088;2023-01-20T04:43:16;8.93;;;5.60;;
75165;SDS011;63747;48.042;10.088;2023-01-20T04:46:17;7.93;;;5.13;;
75165;SDS011;63747;48.042;10.088;2023-01-20T04:49:18;9.23;;;5.37;;
75165;SDS011;63747;48.042;10.088;2023-01-20T04:52:18;9.73;;;6.30;;
75165;SDS011;63747;48.042;10.088;2023-01-20T04:55:19;11.80;;;7.97;;
75165;SDS011;63747;48.042;10.088;2023-01-20T04:58:20;10.33;;;6.80;;
75165;SDS011;63747;48.042;10.088;2023-01-20T05:01:20;7.77;;;6.50;;
75165;SDS011;63747;48.042;10.088;2023-01-20T05:04:21;11.93;;;6.83;;
75165;SDS011;63747;48.042;10.088;2023-01-20T05:07:22;11.33;;;7.80;;
75165;SDS011;63747;48.042;10.088;2023-01-20T05:10:23;10.57;;;7.13;;
75165;SDS011;63747;48.042;10.088;2023-01-20T05:13:23;8.03;;;5.43;;
75165;SDS011;63747;48.042;10.088;2023-01-20T05:16:24;7.07;;;5.47;;
75165;SDS011;63747;48.042;10.088;2023-01-20T05:19:30;7.75;;;5.10;;
75165;SDS011;63747;48.042;10.088;2023-01-20T05:22:31;8.30;;;5.87;;
75165;SDS011;63747;48.042;10.088;2023-01-20T05:25:36;18.70;;;10.65;;
75165;SDS011;63747;48.042;10.088;2023-01-20T05:28:36;12.27;;;8.57;;
75165;SDS011;63747;48.042;10.088;2023-01-20T05:31:37;14.40;;;9.83;;
75165;SDS011;63747;48.042;10.088;2023-01-20T05:34:42;16.23;;;8.93;;
75165;SDS011;63747;48.042;10.088;2023-01-20T05:37:42;10.40;;;7.27;;
75165;SDS011;63747;48.042;10.088;2023-01-20T05:40:43;16.87;;;10.90;;
75165;SDS011;63747;48.042;10.088;2023-01-20T05:43:45;12.00;;;7.53;;
75165;SDS011;63747;48.042;10.088;2023-01-20T05:46:46;10.35;;;6.53;;
75165;SDS011;63747;48.042;10.088;2023-01-20T05:49:46;10.57;;;7.20;;
75165;SDS011;63747;48.042;10.088;2023-01-20T05:52:47;6.53;;;4.97;;
75165;SDS011;63747;48.042;10.088;2023-01-20T05:55:48;10.13;;;6.00;;
75165;SDS011;63747;48.042;10.088;2023-01-20T05:58:52;7.47;;;4.90;;
75165;SDS011;63747;48.042;10.088;2023-01-20T06:01:54;11.52;;;6.40;;
75165;SDS011;63747;48.042;10.088;2023-01-20T06:04:58;11.43;;;6.63;;
75165;SDS011;63747;48.042;10.088;2023-01-20T06:08:01;12.93;;;6.95;;
75165;SDS011;63747;48.042;10.088;2023-01-20T06:11:02;9.40;;;6.83;;
75165;SDS011;63747;48.042;10.088;2023-01-20T06:14:05;10.83;;;7.10;;
75165;SDS011;63747;48.042;10.088;2023-01-20T06:17:05;13.85;;;7.40;;
75165;SDS011;63747;48.042;10.088;2023-01-20T06:20:06;11.97;;;7.33;;
75165;SDS011;63747;48.042;10.088;2023-01-20T06:23:08;11.45;;;7.35;;
75165;SDS011;63747;48.042;10.088;2023-01-20T06:26:10;11.13;;;7.50;;
75165;SDS011;63747;48.042;10.088;2023-01-20T06:29:12;10.85;;;7.45;;
75165;SDS011;63747;48.042;10.088;2023-01-20T06:32:13;10.43;;;7.07;;
75165;SDS011;63747;48.042;10.088;2023-01-20T06:35:14;9.87;;;6.73;;
75165;SDS011;63747;48.042;10.088;2023-01-20T06:38:14;12.17;;;7.37;;
75165;SDS011;63747;48.042;10.088;2023-01-20T06:41:16;9.70;;;7.20;;
75165;SDS011;63747;48.042;10.088;2023-01-20T06:44:17;9.63;;;6.55;;
75165;SDS011;63747;48.042;10.088;2023-01-20T06:47:18;15.47;;;8.13;;
75165;SDS011;63747;48.042;10.088;2023-01-20T06:50:19;12.87;;;9.27;;
75165;SDS011;63747;48.042;10.088;2023-01-20T06:53:19;13.33;;;8.97;;
75165;SDS011;63747;48.042;10.088;2023-01-20T06:56:21;11.47;;;9.07;;
75165;SDS011;63747;48.042;10.088;2023-01-20T06:59:22;12.63;;;8.68;;
75165;SDS011;63747;48.042;10.088;2023-01-20T07:02:22;13.23;;;8.43;;
75165;SDS011;63747;48.042;10.088;2023-01-20T07:05:23;13.43;;;8.60;;
75165;SDS011;63747;48.042;10.088;2023-01-20T07:08:24;18.33;;;11.00;;
75165;SDS011;63747;48.042;10.088;2023-01-20T07:11:25;21.13;;;12.30;;
75165;SDS011;63747;48.042;10.088;2023-01-20T07:14:27;24.48;;;14.13;;
75165;SDS011;63747;48.042;10.088;2023-01-20T07:17:27;16.75;;;12.50;;
75165;SDS011;63747;48.042;10.088;2023-01-20T07:20:28;18.00;;;12.87;;
75165;SDS011;63747;48.042;10.088;2023-01-20T07:23:29;17.17;;;12.20;;
75165;SDS011;63747;48.042;10.088;2023-01-20T07:26:32;14.82;;;10.32;;
75165;SDS011;63747;48.042;10.088;2023-01-20T07:29:33;17.13;;;11.80;;
75165;SDS011;63747;48.042;10.088;2023-01-20T07:32:34;16.33;;;11.57;;
75165;SDS011;63747;48.042;10.088;2023-01-20T07:35:34;17.73;;;12.50;;
75165;SDS011;63747;48.042;10.088;2023-01-20T07:38:41;14.07;;;12.00;;
75165;SDS011;63747;48.042;10.088;2023-01-20T07:41:43;15.18;;;11.68;;
75165;SDS011;63747;48.042;10.088;2023-01-20T07:44:47;15.32;;;11.25;;
75165;SDS011;63747;48.042;10.088;2023-01-20T07:47:48;16.43;;;12.13;;
75165;SDS011;63747;48.042;10.088;2023-01-20T07:50:53;18.50;;;11.80;;
75165;SDS011;63747;48.042;10.088;2023-01-20T07:54:01;16.00;;;11.25;;
75165;SDS011;63747;48.042;10.088;2023-01-20T07:57:03;15.00;;;11.48;;
75165;SDS011;63747;48.042;10.088;2023-01-20T08:00:04;17.63;;;12.40;;
75165;SDS011;63747;48.042;10.088;2023-01-20T08:06:29;13.40;;;10.40;;
75165;SDS011;63747;48.042;10.088;2023-01-20T08:13:06;16.23;;;10.60;;
75165;SDS011;63747;48.042;10.088;2023-01-20T08:16:19;14.02;;;11.15;;
75165;SDS011;63747;48.042;10.088;2023-01-20T08:19:20;15.07;;;10.30;;
75165;SDS011;63747;48.042;10.088;2023-01-20T08:22:21;15.63;;;11.20;;
75165;SDS011;63747;48.042;10.088;2023-01-20T08:25:24;14.25;;;11.02;;
75165;SDS011;63747;48.042;10.088;2023-01-20T08:28:25;17.40;;;12.00;;
75165;SDS011;63747;48.042;10.088;2023-01-20T08:31:26;13.00;;;10.43;;
75165;SDS011;63747;48.042;10.088;2023-01-20T08:34:27;14.53;;;10.30;;
75165;SDS011;63747;48.042;10.088;2023-01-20T08:37:28;14.32;;;9.05;;
75165;SDS011;63747;48.042;10.088;2023-01-20T08:40:29;12.77;;;9.13;;
75165;SDS011;63747;48.042;10.088;2023-01-20T08:43:30;14.27;;;10.03;;
75165;SDS011;63747;48.042;10.088;2023-01-20T08:46:32;13.63;;;9.23;;
75165;SDS011;63747;48.042;10.088;2023-01-20T08:49:34;16.00;;;9.50;;
75165;SDS011;63747;48.042;10.088;2023-01-20T08:52:34;10.27;;;8.50;;
75165;SDS011;63747;48.042;10.088;2023-01-20T08:55:35;12.87;;;8.37;;
75165;SDS011;63747;48.042;10.088;2023-01-20T08:58:36;9.43;;;7.73;;
75165;SDS011;63747;48.042;10.088;2023-01-20T09:01:37;10.83;;;8.53;;
75165;SDS011;63747;48.042;10.088;2023-01-20T09:04:37;11.90;;;8.13;;
75165;SDS011;63747;48.042;10.088;2023-01-20T09:07:38;11.20;;;8.03;;
75165;SDS011;63747;48.042;10.088;2023-01-20T09:10:39;11.07;;;7.17;;
75165;SDS011;63747;48.042;10.088;2023-01-20T09:13:40;12.50;;;8.33;;
75165;SDS011;63747;48.042;10.088;2023-01-20T09:16:41;9.33;;;6.83;;
75165;SDS011;63747;48.042;10.088;2023-01-20T09:19:41;11.57;;;7.00;;
75165;SDS011;63747;48.042;10.088;2023-01-20T09:22:42;10.77;;;7.17;;
75165;SDS011;63747;48.042;10.088;2023-01-20T09:25:43;10.50;;;6.70;;
75165;SDS011;63747;48.042;10.088;2023-01-20T09:28:44;9.60;;;7.13;;
75165;SDS011;63747;48.042;10.088;2023-01-20T09:31:49;11.77;;;7.88;;
75165;SDS011;63747;48.042;10.088;2023-01-20T09:34:52;10.98;;;7.40;;
75165;SDS011;63747;48.042;10.088;2023-01-20T09:37:52;10.97;;;7.80;;
75165;SDS011;63747;48.042;10.088;2023-01-20T09:44:57;12.27;;;8.15;;
75165;SDS011;63747;48.042;10.088;2023-01-20T09:48:09;11.98;;;8.38;;
75165;SDS011;63747;48.042;10.088;2023-01-20T09:51:37;10.98;;;7.18;;
75165;SDS011;63747;48.042;10.088;2023-01-20T09:55:09;12.85;;;8.15;;
75165;SDS011;63747;48.042;10.088;2023-01-20T09:58:19;11.20;;;7.43;;
75165;SDS011;63747;48.042;10.088;2023-01-20T10:01:51;10.27;;;7.63;;
75165;SDS011;63747;48.042;10.088;2023-01-20T10:04:57;15.63;;;7.50;;
75165;SDS011;63747;48.042;10.088;2023-01-20T10:11:10;8.73;;;6.93;;
75165;SDS011;63747;48.042;10.088;2023-01-20T10:14:19;8.80;;;7.28;;
75165;SDS011;63747;48.042;10.088;2023-01-20T10:17:36;10.77;;;7.57;;
75165;SDS011;63747;48.042;10.088;2023-01-20T10:20:54;10.05;;;7.22;;
75165;SDS011;63747;48.042;10.088;2023-01-20T10:24:09;10.48;;;7.22;;
75165;SDS011;63747;48.042;10.088;2023-01-20T10:27:16;11.70;;;8.73;;
75165;SDS011;63747;48.042;10.088;2023-01-20T10:30:17;12.03;;;8.87;;
75165;SDS011;63747;48.042;10.088;2023-01-20T10:33:28;11.82;;;8.40;;
75165;SDS011;63747;48.042;10.088;2023-01-20T10:36:36;10.45;;;8.32;;
75165;SDS011;63747;48.042;10.088;2023-01-20T10:42:52;12.13;;;7.78;;
75165;SDS011;63747;48.042;10.088;2023-01-20T10:58:59;10.00;;;7.78;;
75165;SDS011;63747;48.042;10.088;2023-01-20T11:05:15;9.18;;;7.75;;
75165;SDS011;63747;48.042;10.088;2023-01-20T11:08:18;11.02;;;7.68;;
75165;SDS011;63747;48.042;10.088;2023-01-20T11:11:22;12.57;;;7.47;;
75165;SDS011;63747;48.042;10.088;2023-01-20T11:14:24;12.38;;;7.55;;
75165;SDS011;63747;48.042;10.088;2023-01-20T11:17:25;9.97;;;8.03;;
75165;SDS011;63747;48.042;10.088;2023-01-20T11:20:26;10.03;;;8.20;;
75165;SDS011;63747;48.042;10.088;2023-01-20T11:26:39;9.82;;;8.07;;
75165;SDS011;63747;48.042;10.088;2023-01-20T11:29:41;9.97;;;7.73;;
75165;SDS011;63747;48.042;10.088;2023-01-20T11:32:45;10.25;;;8.43;;
75165;SDS011;63747;48.042;10.088;2023-01-20T11:36:08;10.73;;;7.95;;
75165;SDS011;63747;48.042;10.088;2023-01-20T11:39:25;10.05;;;8.00;;
75165;SDS011;63747;48.042;10.088;2023-01-20T11:42:45;12.02;;;8.07;;
75165;SDS011;63747;48.042;10.088;2023-01-20T11:49:16;8.95;;;7.43;;
75165;SDS011;63747;48.042;10.088;2023-01-20T11:52:23;10.20;;;7.97;;
75165;SDS011;63747;48.042;10.088;2023-01-20T11:55:27;10.90;;;8.13;;
75165;SDS011;63747;48.042;10.088;2023-01-20T11:58:32;11.70;;;8.00;;
75165;SDS011;63747;48.042;10.088;2023-01-20T12:01:49;11.45;;;8.23;;
75165;SDS011;63747;48.042;10.088;2023-01-20T12:05:00;11.10;;;8.20;;
75165;SDS011;63747;48.042;10.088;2023-01-20T12:08:25;10.55;;;7.82;;
75165;SDS011;63747;48.042;10.088;2023-01-20T12:11:34;11.20;;;8.18;;
75165;SDS011;63747;48.042;10.088;2023-01-20T12:14:46;10.70;;;8.07;;
75165;SDS011;63747;48.042;10.088;2023-01-20T12:17:57;9.70;;;7.68;;
75165;SDS011;63747;48.042;10.088;2023-01-20T12:21:17;9.90;;;7.78;;
75165;SDS011;63747;48.042;10.088;2023-01-20T12:24:21;11.10;;;8.48;;
75165;SDS011;63747;48.042;10.088;2023-01-20T12:27:54;10.05;;;7.55;;
75165;SDS011;63747;48.042;10.088;2023-01-20T12:31:03;10.68;;;8.10;;
75165;SDS011;63747;48.042;10.088;2023-01-20T12:34:12;10.73;;;8.70;;
75165;SDS011;63747;48.042;10.088;2023-01-20T12:54:45;11.82;;;8.68;;
75165;SDS011;63747;48.042;10.088;2023-01-20T12:57:55;11.55;;;8.13;;
75165;SDS011;63747;48.042;10.088;2023-01-20T13:05:07;10.07;;;8.00;;
75165;SDS011;63747;48.042;10.088;2023-01-20T13:08:09;9.77;;;7.65;;
75165;SDS011;63747;48.042;10.088;2023-01-20T13:18:55;8.52;;;6.75;;
75165;SDS011;63747;48.042;10.088;2023-01-20T13:22:12;9.73;;;7.03;;
75165;SDS011;63747;48.042;10.088;2023-01-20T13:25:18;10.05;;;7.88;;
75165;SDS011;63747;48.042;10.088;2023-01-20T13:28:24;9.70;;;7.45;;
75165;SDS011;63747;48.042;10.088;2023-01-20T13:31:43;8.93;;;6.55;;
75165;SDS011;63747;48.042;10.088;2023-01-20T13:34:45;9.45;;;7.13;;
75165;SDS011;63747;48.042;10.088;2023-01-20T13:37:49;10.07;;;7.15;;
75165;SDS011;63747;48.042;10.088;2023-01-20T13:40:53;10.73;;;7.60;;
75165;SDS011;63747;48.042;10.088;2023-01-20T13:44:04;9.38;;;7.07;;
75165;SDS011;63747;48.042;10.088;2023-01-20T13:47:46;8.55;;;7.43;;
75165;SDS011;63747;48.042;10.088;2023-01-20T13:57:47;9.90;;;7.10;;
75165;SDS011;63747;48.042;10.088;2023-01-20T14:00:48;8.55;;;7.25;;
75165;SDS011;63747;48.042;10.088;2023-01-20T14:04:04;7.40;;;6.60;;
75165;SDS011;63747;48.042;10.088;2023-01-20T14:07:44;8.57;;;6.70;;
75165;SDS011;63747;48.042;10.088;2023-01-20T14:10:46;7.97;;;6.10;;
75165;SDS011;63747;48.042;10.088;2023-01-20T14:13:52;8.23;;;6.32;;
75165;SDS011;63747;48.042;10.088;2023-01-20T14:16:55;8.98;;;6.80;;
75165;SDS011;63747;48.042;10.088;2023-01-20T14:19:56;8.50;;;6.43;;
75165;SDS011;63747;48.042;10.088;2023-01-20T14:23:22;8.50;;;6.40;;
75165;SDS011;63747;48.042;10.088;2023-01-20T14:26:26;11.02;;;7.32;;
75165;SDS011;63747;48.042;10.088;2023-01-20T14:29:34;8.75;;;6.32;;
75165;SDS011;63747;48.042;10.088;2023-01-20T14:32:35;7.95;;;6.47;;
75165;SDS011;63747;48.042;10.088;2023-01-20T14:35:36;8.27;;;6.53;;
75165;SDS011;63747;48.042;10.088;2023-01-20T14:38:40;8.48;;;6.47;;
75165;SDS011;63747;48.042;10.088;2023-01-20T14:42:00;8.35;;;6.65;;
75165;SDS011;63747;48.042;10.088;2023-01-20T14:45:01;8.13;;;6.30;;
75165;SDS011;63747;48.042;10.088;2023-01-20T14:48:02;9.10;;;7.33;;
75165;SDS011;63747;48.042;10.088;2023-01-20T14:51:04;9.30;;;6.22;;
75165;SDS011;63747;48.042;10.088;2023-01-20T14:57:32;10.75;;;7.57;;
75165;SDS011;63747;48.042;10.088;2023-01-20T15:00:46;8.75;;;6.85;;
75165;SDS011;63747;48.042;10.088;2023-01-20T15:03:55;8.35;;;6.75;;
75165;SDS011;63747;48.042;10.088;2023-01-20T15:06:57;7.57;;;6.72;;
75165;SDS011;63747;48.042;10.088;2023-01-20T15:09:59;9.50;;;6.90;;
75165;SDS011;63747;48.042;10.088;2023-01-20T15:13:21;11.18;;;7.93;;
75165;SDS011;63747;48.042;10.088;2023-01-20T15:19:45;22.03;;;13.90;;
75165;SDS011;63747;48.042;10.088;2023-01-20T15:22:46;9.87;;;6.57;;
75165;SDS011;63747;48.042;10.088;2023-01-20T15:25:50;8.85;;;7.60;;
75165;SDS011;63747;48.042;10.088;2023-01-20T15:28:52;9.45;;;7.90;;
75165;SDS011;63747;48.042;10.088;2023-01-20T15:31:55;8.45;;;6.95;;
75165;SDS011;63747;48.042;10.088;2023-01-20T15:34:58;8.43;;;6.78;;
75165;SDS011;63747;48.042;10.088;2023-01-20T15:37:59;8.43;;;6.85;;
75165;SDS011;63747;48.042;10.088;2023-01-20T15:41:00;9.63;;;7.27;;
75165;SDS011;63747;48.042;10.088;2023-01-20T15:44:01;9.97;;;8.00;;
75165;SDS011;63747;48.042;10.088;2023-01-20T15:47:04;8.90;;;8.00;;
75165;SDS011;63747;48.042;10.088;2023-01-20T15:50:17;10.27;;;8.63;;
75165;SDS011;63747;48.042;10.088;2023-01-20T15:53:20;13.07;;;8.52;;
75165;SDS011;63747;48.042;10.088;2023-01-20T15:56:22;11.10;;;9.03;;
75165;SDS011;63747;48.042;10.088;2023-01-20T15:59:27;10.05;;;8.38;;
75165;SDS011;63747;48.042;10.088;2023-01-20T16:02:29;13.88;;;8.57;;
75165;SDS011;63747;48.042;10.088;2023-01-20T16:05:30;11.82;;;8.38;;
75165;SDS011;63747;48.042;10.088;2023-01-20T16:08:35;9.37;;;7.87;;
75165;SDS011;63747;48.042;10.088;2023-01-20T16:11:37;10.60;;;7.90;;
75165;SDS011;63747;48.042;10.088;2023-01-20T16:14:41;11.10;;;8.55;;
75165;SDS011;63747;48.042;10.088;2023-01-20T16:17:42;11.63;;;8.32;;
75165;SDS011;63747;48.042;10.088;2023-01-20T16:20:44;11.45;;;9.23;;
75165;SDS011;63747;48.042;10.088;2023-01-20T16:23:45;13.50;;;9.10;;
75165;SDS011;63747;48.042;10.088;2023-01-20T16:26:46;12.07;;;8.60;;
75165;SDS011;63747;48.042;10.088;2023-01-20T16:29:47;9.47;;;8.00;;
75165;SDS011;63747;48.042;10.088;2023-01-20T16:32:49;11.07;;;8.88;;
75165;SDS011;63747;48.042;10.088;2023-01-20T16:35:51;9.52;;;8.20;;
75165;SDS011;63747;48.042;10.088;2023-01-20T16:38:54;11.65;;;9.32;;
75165;SDS011;63747;48.042;10.088;2023-01-20T16:41:55;12.07;;;8.98;;
75165;SDS011;63747;48.042;10.088;2023-01-20T16:44:56;28.13;;;14.67;;
75165;SDS011;63747;48.042;10.088;2023-01-20T16:47:57;45.63;;;22.00;;
75165;SDS011;63747;48.042;10.088;2023-01-20T16:50:58;75.47;;;42.77;;
75165;SDS011;63747;48.042;10.088;2023-01-20T16:54:03;23.30;;;16.65;;
75165;SDS011;63747;48.042;10.088;2023-01-20T16:57:05;14.30;;;9.90;;
75165;SDS011;63747;48.042;10.088;2023-01-20T17:00:06;12.83;;;9.83;;
75165;SDS011;63747;48.042;10.088;2023-01-20T17:03:08;12.38;;;10.25;;
75165;SDS011;63747;48.042;10.088;2023-01-20T17:06:13;12.50;;;10.20;;
75165;SDS011;63747;48.042;10.088;2023-01-20T17:09:16;13.48;;;10.75;;
75165;SDS011;63747;48.042;10.088;2023-01-20T17:12:25;11.93;;;9.05;;
75165;SDS011;63747;48.042;10.088;2023-01-20T17:15:26;12.95;;;9.63;;
75165;SDS011;63747;48.042;10.088;2023-01-20T17:18:28;13.38;;;9.85;;
75165;SDS011;63747;48.042;10.088;2023-01-20T17:21:30;14.55;;;11.20;;
75165;SDS011;63747;48.042;10.088;2023-01-20T17:24:33;15.88;;;10.65;;
75165;SDS011;63747;48.042;10.088;2023-01-20T17:27:36;13.13;;;11.07;;
75165;SDS011;63747;48.042;10.088;2023-01-20T17:30:38;14.55;;;10.23;;
75165;SDS011;63747;48.042;10.088;2023-01-20T17:33:43;15.33;;;10.73;;
75165;SDS011;63747;48.042;10.088;2023-01-20T17:36:46;15.18;;;10.23;;
75165;SDS011;63747;48.042;10.088;2023-01-20T17:39:47;12.60;;;10.38;;
75165;SDS011;63747;48.042;10.088;2023-01-20T17:42:51;16.77;;;10.30;;
75165;SDS011;63747;48.042;10.088;2023-01-20T17:45:52;16.65;;;11.38;;
75165;SDS011;63747;48.042;10.088;2023-01-20T17:48:56;15.07;;;11.30;;
75165;SDS011;63747;48.042;10.088;2023-01-20T17:51:58;16.30;;;12.40;;
75165;SDS011;63747;48.042;10.088;2023-01-20T17:54:59;16.30;;;12.73;;
75165;SDS011;63747;48.042;10.088;2023-01-20T17:58:00;15.90;;;12.07;;
75165;SDS011;63747;48.042;10.088;2023-01-20T18:01:20;15.65;;;12.15;;
75165;SDS011;63747;48.042;10.088;2023-01-20T18:04:26;18.33;;;11.88;;
75165;SDS011;63747;48.042;10.088;2023-01-20T18:07:30;14.48;;;11.27;;
75165;SDS011;63747;48.042;10.088;2023-01-20T18:10:31;16.20;;;12.40;;
75165;SDS011;63747;48.042;10.088;2023-01-20T18:13:32;18.80;;;12.95;;
75165;SDS011;63747;48.042;10.088;2023-01-20T18:16:35;15.45;;;13.05;;
75165;SDS011;63747;48.042;10.088;2023-01-20T18:19:38;22.80;;;15.27;;
75165;SDS011;63747;48.042;10.088;2023-01-20T18:22:46;33.47;;;20.75;;
75165;SDS011;63747;48.042;10.088;2023-01-20T18:25:51;29.67;;;19.65;;
75165;SDS011;63747;48.042;10.088;2023-01-20T18:28:59;25.83;;;17.50;;
75165;SDS011;63747;48.042;10.088;2023-01-20T18:32:02;22.52;;;15.95;;
75165;SDS011;63747;48.042;10.088;2023-01-20T18:35:03;29.23;;;21.17;;
75165;SDS011;63747;48.042;10.088;2023-01-20T18:38:05;32.20;;;20.80;;
75165;SDS011;63747;48.042;10.088;2023-01-20T18:41:06;31.10;;;21.17;;
75165;SDS011;63747;48.042;10.088;2023-01-20T18:44:16;29.92;;;20.08;;
75165;SDS011;63747;48.042;10.088;2023-01-20T18:47:22;25.45;;;18.65;;
75165;SDS011;63747;48.042;10.088;2023-01-20T18:50:23;23.33;;;17.60;;
75165;SDS011;63747;48.042;10.088;2023-01-20T18:53:25;24.67;;;17.85;;
75165;SDS011;63747;48.042;10.088;2023-01-20T18:56:29;55.70;;;28.65;;
75165;SDS011;63747;48.042;10.088;2023-01-20T18:59:34;40.33;;;23.85;;
75165;SDS011;63747;48.042;10.088;2023-01-20T19:02:35;28.20;;;20.27;;
75165;SDS011;63747;48.042;10.088;2023-01-20T19:05:36;24.80;;;17.53;;
75165;SDS011;63747;48.042;10.088;2023-01-20T19:08:38;19.83;;;15.67;;
75165;SDS011;63747;48.042;10.088;2023-01-20T19:11:40;21.23;;;16.30;;
75165;SDS011;63747;48.042;10.088;2023-01-20T19:14:41;21.77;;;16.33;;
75165;SDS011;63747;48.042;10.088;2023-01-20T19:17:53;21.73;;;17.40;;
75165;SDS011;63747;48.042;10.088;2023-01-20T19:20:55;26.20;;;17.88;;
75165;SDS011;63747;48.042;10.088;2023-01-20T19:24:02;56.13;;;31.05;;
75165;SDS011;63747;48.042;10.088;2023-01-20T19:27:07;114.43;;;50.47;;
75165;SDS011;63747;48.042;10.088;2023-01-20T19:30:08;51.25;;;29.42;;
75165;SDS011;63747;48.042;10.088;2023-01-20T19:33:09;29.67;;;20.98;;
75165;SDS011;63747;48.042;10.088;2023-01-20T19:36:12;36.95;;;25.75;;